Disclaimer

Please do not use the information listed here in-flight or in-navigation, as they are not provided to us by the airports but are provided by volunteers, so they might be outdated.

Search


Regions


Airport information page

Radio informations:
Tower (TWR) - 118.2 MHz
Ground (GND) - 121.6 MHz
Clearance delivery - 126.3 MHz
Automatic Terminal Information Service (ATIS) - 117.2 MHz
Approach (APP) - 125.4 MHz

Airport informations:
Latitude: 26° 15' 55.50" N
Longitude: 050° 09' 07.30" E
Elevation: 84 feet - 26 meters
Operating hours: 24 hour operations
Operating agency: Military
Timezone: UTC+3
Fuel: JP-4, Wide cut turbine fuel MIL Spec T-5624

Jet A1, without icing nhibitor.

100/130 octane gasoline, leaded, MIL-L-5572F (GREEN)

Runway information:
16R/34L - 12008 x 148 feet< - >3660 x 45 meters
16L/34R - 11811 x 148 feet< - >3600 x 45 meters

Recent METARs:
OEDR 211900Z 28006KT CAVOK 17/09 Q1018 NOSIG
OEDR 211900Z 28006KT CAVOK 17/09 Q1018 NOSIG
OEDR 212000Z 28006KT CAVOK 16/08 Q1017 NOSIG

Airport on the map: